Aviation Digital Data Service (ADDS)

Output produced by METARs form (1359 UTC 22 April 2019)
found at http://www.aviationweather.gov/metar/data/
 
Forecast for: LTAC (ANKARA/ESENBOGA , TR)
Text: TAF LTAC 221040Z 2212/2312 VRB02KT 9999 SCT040
Forecast period: 1200 to 1800 UTC 22 April 2019
Forecast type: FROM: standard forecast or significant change
Winds: variable direction winds at 2 MPH (2 knots; 1.0 m/s)
Visibility: 6 or more miles 10+ km)
Ceiling: at least 12,000 feet AGL
Clouds: scattered clouds at 4000 feet AGL
Weather: no significant weather forecast for this period
Text: BECMG 2218/2221 CAVOK
Forecast period: 1800 UTC 22 April 2019 to 0400 UTC 23 April 2019
Forecast type: BECOMING: Conditions expected to become as follows by 2100 UTC 22 April 2019
Winds: variable direction winds at 2 MPH (2 knots; 1.0 m/s)
Visibility: 6 or more miles 10+ km)
Ceiling: unknown
Clouds: missing
Weather: NSW  (no significant weather)
Text: BECMG 2304/2306 SCT040
Forecast period: 0400 to 1200 UTC 23 April 2019
Forecast type: BECOMING: Conditions expected to become as follows by 0600 UTC 23 April 2019
Winds: variable direction winds at 2 MPH (2 knots; 1.0 m/s)
Visibility: 6 or more miles 10+ km)
Ceiling: at least 12,000 feet AGL
Clouds: scattered clouds at 4000 feet AGL
Weather: NSW  (no significant weather)